This demonstration page uses our WeatherBlox Daily Observations layout. Learn more.

Left ArrowRight Arrow

41.55636, -103.73856

Hourly Observations for November 25, 2019

Temp ( °F °C ) Dew Point ( °F °C ) Humidity (%) Winds ( mph kmh ) Pressure ( in mb ) Visibility ( mi km ) Precip ( " mm )
12:58 am 00:58 Mostly Cloudy 50 10 15 -9.7 24 24 WNW 20 31 29.73 1007 10 16.0934 N/A
1:58 am 01:58 Mostly Cloudy 48 8.8 18 -8 30 30 WNW 20 31 29.73 1007 10 16.0934 N/A
2:58 am 02:58 Mostly Cloudy 46 7.5 19 -7.4 34 34 W 15 24 29.72 1007 10 16.0934 N/A
3:58 am 03:58 Mostly Cloudy 50 10 20 -6.7 30 30 WNW 22 35 29.7 1006 10 16.0934 N/A
4:58 am 04:58 Partly Cloudy 47 8.6 20 -6.6 34 34 WNW 22 35 29.7 1006 10 16.0934 N/A
5:58 am 05:58 Mostly Cloudy 46 7.6 21 -6.1 38 38 WNW 13 20 29.69 1006 10 16.0934 N/A
6:58 am 06:58 Mostly Cloudy 46 7.8 20 -6.7 35 35 WNW 17 28 29.7 1006 10 16.0934 N/A
7:58 am 07:58 Mostly Cloudy 42 5.4 22 -5.5 46 46 NNW 12 19 29.72 1007 10 16.0934 N/A
8:58 am 08:58 Mostly Clear 36 2.3 26 -3.1 68 68 NNE 10 17 29.75 1008 10 16.0934 N/A
9:58 am 09:58 Mostly Cloudy 34 1.2 26 -3.5 71 71 NNW 9 15 29.78 1008 10 16.0934 N/A
10:58 am 10:58 Mostly Cloudy 34 1.2 25 -3.8 70 70 NNW 10 17 29.8 1009 10 16.0934 N/A
11:58 am 11:58 Mostly Cloudy 29 -1.5 24 -4.2 82 82 N N/A 29.84 1011 10 16.0934 N/A
12:58 pm 12:58 Cloudy with Light Showers 34 1.1 28 -2.3 78 78 N 10 17 29.83 1010 10 16.0934 N/A
1:58 pm 13:58 Mostly Cloudy 32 -0.2 25 -3.9 76 76 NNW 6 9 29.84 1011 10 16.0934 N/A
2:58 pm 14:58 Mostly Cloudy 31 -0.7 25 -4 79 79 W 3 6 29.86 1011 10 16.0934 N/A
3:58 pm 15:58 Mostly Cloudy 33 0.3 25 -3.8 74 74 W 6 9 29.85 1011 10 16.0934 N/A
4:58 pm 16:58 Mostly Cloudy 36 2 23 -5.1 60 60 NW 10 17 29.84 1011 10 16.0934 N/A
5:58 pm 17:58 Partly Cloudy 37 2.8 17 -8.1 45 45 N 15 24 29.8 1009 10 16.0934 N/A
6:58 pm 18:58 Mostly Sunny 37 2.9 16 -8.7 43 43 N 7 11 29.77 1008 10 16.0934 N/A
7:58 pm 19:58 Cloudy 36 2.3 16 -8.9 44 44 N 8 13 29.77 1008 10 16.0934 N/A
8:58 pm 20:58 Cloudy 35 1.5 16 -8.7 47 47 ENE 10 17 29.76 1008 10 16.0934 N/A
9:58 pm 21:58 Cloudy with Light Rain/Snow 32 0.2 20 -6.9 59 59 ENE 5 7 29.77 1008 10 16.0934 N/A
10:58 pm 22:58 Cloudy with Light Snow 29 -1.7 25 -4.1 84 84 S 5 7 29.79 1009 1.75 2.816345 N/A
11:58 pm 23:58 Cloudy with Light Snow 28 -2.3 26 -3.1 94 94 ESE 3 6 29.83 1010 2.5 4.02335 0.01 0.254

Powered by AerisWeather